Date,TemperatureHighF,TemperatureAvgF,TemperatureLowF,DewpointHighF,DewpointAvgF,DewpointLowF,HumidityHigh,HumidityAvg,HumidityLow,PressureMaxIn,PressureMinIn,WindSpeedMaxMPH,WindSpeedAvgMPH,GustSpeedMaxMPH,PrecipitationSumIn
2013-2-1,62,51,39,37,32,25,74,49,30,30.34,30.24,22,6,24,0.00
2013-2-2,66,50,37,42,31,22,80,50,26,30.36,30.16,12,3,13,0.00
2013-2-3,65,53,44,41,34,26,80,51,23,30.19,30.04,21,6,22,0.00
2013-2-4,62,53,42,48,41,32,88,64,35,30.14,30.04,9,2,9,0.00
2013-2-5,69,58,47,54,46,40,85,65,44,30.11,30.00,11,1,11,0.00
2013-2-6,67,61,57,58,54,49,88,79,65,30.16,30.05,13,2,13,0.00
2013-2-7,75,67,61,64,60,56,92,80,57,30.10,29.82,19,3,19,0.02
2013-2-8,69,60,55,63,53,51,89,79,64,30.10,29.83,23,7,23,0.00
2013-2-9,61,55,48,51,46,39,89,72,46,30.27,30.09,20,7,20,0.00
2013-2-10,72,63,53,58,54,47,90,72,53,30.32,30.17,24,6,25,0.00
2013-2-11,79,71,64,62,60,57,82,69,53,30.19,30.05,18,3,18,0.00
2013-2-12,80,68,63,66,63,60,92,82,58,30.08,29.85,19,3,19,0.00
2013-2-13,75,71,59,70,63,47,89,76,45,29.94,29.78,22,5,23,0.14
2013-2-14,59,53,48,54,47,43,88,82,73,30.09,29.91,15,5,16,0.13
2013-2-15,62,52,42,50,44,38,89,78,55,30.12,29.98,16,5,17,0.01
2013-2-16,58,48,41,46,40,22,92,75,46,30.15,29.92,32,6,32,0.03
2013-2-17,51,41,32,28,19,8,72,44,18,30.37,30.15,25,6,25,0.01
2013-2-18,58,46,32,45,36,24,88,68,33,30.43,30.23,23,4,23,0.00
2013-2-19,76,61,45,60,51,42,89,72,43,30.24,29.99,27,4,27,0.00
2013-2-20,67,56,46,56,39,27,88,57,26,30.19,30.06,15,4,16,0.00
2013-2-21,62,50,46,45,41,34,88,73,37,30.17,30.08,8,2,8,0.00
2013-2-22,80,69,61,65,63,56,92,81,56,30.08,30.00,9,3,13,0.00
2013-2-23,82,71,62,66,63,59,92,78,51,29.99,29.83,18,4,32,0.03
2013-2-24,71,64,61,61,55,46,92,75,42,30.01,29.85,11,5,18,0.03
2013-2-25,67,62,59,65,59,54,92,88,76,29.94,29.82,20,10,42,0.48
2013-2-26,78,70,61,67,58,51,93,67,40,29.83,29.66,29,8,31,0.46
2013-2-27,68,59,54,53,46,40,80,61,39,29.98,29.82,22,7,26,0.00
2013-2-28,68,58,49,46,41,32,80,55,34,29.98,29.85,28,7,30,0.00